Terminal Aerodrome Forecast
Issued by NWS

Home | Current Version | Previous Version | Text Only | Print | Product List | Glossary On
Versions: 1 2 3 4 5 6 7 8 9 10 11 12 13 14 15 16 17 18 19 20 21 22 23 24 25 26 27 28
320
FTUS43 KGRB 101722
TAFRHI
TAF
KRHI 101722Z 1018/1118 30006KT P6SM SCT025 BKN045
     FM110600 VRB03KT P6SM OVC025
     FM110800 12003KT P6SM -SN OVC010
     FM111200 11005KT 2SM -SN OVC015
     FM111400 10006KT 1SM -SN OVC017=

USA.gov is the U.S. government's official web portal to all federal, state and local government web resources and services.